메인 페이지
METAR-TAF:

METAR-TAF

공항 :

Durango-La Plata County Airport

Durango, 콜로라도, 미국

위도: 37-08-35N, 경도: 107-45-35W, 고도: 2038m

현재 날씨관측

예보는 52분 전, 19:53시(UTC)에 발표되었습니다.
7kt
온도 7°C
습도 29%
기압 1023 hPa
시정: 16.1km
맑음

METAR: KDRO 191953Z AUTO 26007KT 10SM CLR 07/M10 A3022 RMK AO2 SLP253 T00721100

시각: 13:45 (20:45 UTC)

예보

예보는 3 시간 25분 전, 17:20시(UTC)에 발표되었습니다.
예보 대상 시간: 19일 18시부터 20일 18시까지 (UTC)
kt
시정: 10km
맑음
19일 2100시부터 (UTC)
남서9kt
시정: 10km
맑음
20일 0400시부터 (UTC)
북동4kt
시정: 10km
맑음

TAF: KDRO 191720Z 1918/2018 00000KT P6SM SKC FM192100 22009KT P6SM SKC FM200400 05004KT P6SM SKC

4,000개 이상의 공항 관측 자료 및 예보 (METAR 및 TAF 보고).

지도상에서 검색 가능한 기상관측소가 노란 점과 빨간 점으로 표시되어 있습니다.

기상관측소 명을 보려면 표시 위로 마우스를 이동하세요.

날씨 관측과 예보를 보려면 클릭하세요.

지도 변경 : 확대하려면 엑스 표시가 있는 녹색 버튼, 축소하려면 빼기 표시가 있는 녹색 버튼, 다음 페이지의 지도를 보려면 녹색 화살표를 클릭하세요.


METAR-TAF: